This is the latest recevied weather packets stored in our database for station/object DG7AA-13. If no packets are shown the sender has not sent any weather packets the latest 10 day(s).
| Time | Temp. | Humidity | Pressure | Rain* | Wind** | Luminosity | Snow |
|---|---|---|---|---|---|---|---|
| 1777904131 | 22.78° C | 49% | - | 0 mm | - | - | - |
| 1777903526 | 23.33° C | 49% | - | 0 mm | - | - | - |
| 1777902929 | 22.78° C | 48% | - | 0 mm | - | - | - |
| 1777902323 | 22.22° C | 51% | - | 0 mm | - | - | - |
| 1777901736 | 22.22° C | 52% | - | 0 mm | - | - | - |
| 1777901126 | 22.78° C | 50% | - | 0 mm | - | - | - |
| 1777900531 | 23.33° C | 49% | - | 0 mm | - | - | - |
| 1777899926 | 23.89° C | 48% | - | 0 mm | - | - | - |
| 1777899322 | 24.44° C | 46% | - | 0 mm | - | - | - |
| 1777898724 | 23.33° C | 50% | - | 0 mm | - | - | - |
| 1777898135 | 21.67° C | 55% | - | 0 mm | - | - | - |
| 1777897523 | 21.11° C | 56% | - | 0 mm | - | - | - |
| 1777896923 | 21.11° C | 57% | - | 0 mm | - | - | - |
| 1777896324 | 20.56° C | 57% | - | 0 mm | - | - | - |
| 1777895722 | 21.11° C | 55% | - | 0 mm | - | - | - |
| 1777895127 | 21.67° C | 54% | - | 0 mm | - | - | - |
| 1777894531 | 21.11° C | 55% | - | 0 mm | - | - | - |
| 1777893923 | 21.11° C | 55% | - | 0 mm | - | - | - |
| 1777893339 | 22.22° C | 54% | - | 0 mm | - | - | - |
| 1777892723 | 22.22° C | 52% | - | 0 mm | - | - | - |
| 1777892132 | 22.78° C | 53% | - | 0 mm | - | - | - |
| 1777891526 | 22.78° C | 52% | - | 0 mm | - | - | - |
| 1777890920 | 22.78° C | 53% | - | 0 mm | - | - | - |
| 1777890323 | 22.22° C | 54% | - | 0 mm | - | - | - |
| 1777889734 | 22.78° C | 52% | - | 0 mm | - | - | - |
* Rain latest hour (hover to see other rain measurements)
** Current wind speed in m/s (hover to see current wind gust speed)